createdAt,value
2018-01-24T00:00:01.448Z,37.59
2018-01-24T00:02:28.975Z,37.51
2018-01-24T00:04:56.527Z,37.47
2018-01-24T00:07:24.123Z,37.46
2018-01-24T00:09:51.722Z,37.47
2018-01-24T00:12:19.247Z,37.41
2018-01-24T00:14:46.836Z,37.45
2018-01-24T00:17:14.427Z,37.40
2018-01-24T00:19:41.971Z,37.37
2018-01-24T00:22:09.656Z,37.29
2018-01-24T00:24:37.269Z,37.29
2018-01-24T00:27:04.828Z,37.27
2018-01-24T00:29:32.481Z,37.14
2018-01-24T00:32:00.065Z,37.13
2018-01-24T00:34:27.662Z,37.15
2018-01-24T00:36:55.302Z,37.11
2018-01-24T00:39:22.888Z,37.08
2018-01-24T00:41:50.472Z,37.06
2018-01-24T00:44:18.109Z,37.07
2018-01-24T00:46:45.720Z,37.05
2018-01-24T00:49:13.312Z,37.11
2018-01-24T00:51:40.957Z,37.01
2018-01-24T00:54:08.558Z,36.96
2018-01-24T00:56:36.203Z,36.94
2018-01-24T00:59:03.837Z,36.96
2018-01-24T01:01:31.438Z,37.01
2018-01-24T01:03:58.988Z,37.07
2018-01-24T01:06:26.555Z,36.95
2018-01-24T01:08:54.151Z,36.92
2018-01-24T01:11:21.748Z,36.90
2018-01-24T01:13:49.302Z,36.84
2018-01-24T01:16:16.907Z,36.83
2018-01-24T01:18:44.496Z,36.85
2018-01-24T01:21:12.114Z,36.81
2018-01-24T01:23:39.673Z,36.80
2018-01-24T01:26:07.264Z,36.71
2018-01-24T01:28:34.872Z,36.68
2018-01-24T01:31:02.473Z,36.61
2018-01-24T01:33:30.069Z,36.60
2018-01-24T01:35:57.639Z,36.56
2018-01-24T01:38:25.246Z,36.57
2018-01-24T01:40:52.799Z,36.57
2018-01-24T01:43:20.461Z,36.56
2018-01-24T01:45:47.991Z,36.53
2018-01-24T01:48:27.462Z,36.49
2018-01-24T01:50:55.027Z,36.45
2018-01-24T01:53:22.608Z,36.43
2018-01-24T01:55:50.241Z,36.44
2018-01-24T01:58:17.873Z,36.49
2018-01-24T02:00:45.420Z,36.40
2018-01-24T02:03:13.030Z,36.40
2018-01-24T02:05:40.624Z,36.37
2018-01-24T02:08:08.215Z,36.33
2018-01-24T02:10:35.738Z,36.29
2018-01-24T02:13:03.296Z,36.28
2018-01-24T02:15:30.939Z,36.27
2018-01-24T02:17:58.527Z,36.21
2018-01-24T02:20:26.078Z,36.21
2018-01-24T02:22:53.729Z,36.20
2018-01-24T02:25:21.358Z,36.26
2018-01-24T02:27:48.880Z,36.15
2018-01-24T02:30:16.544Z,36.14
2018-01-24T02:32:44.072Z,36.08
2018-01-24T02:35:11.631Z,36.09
2018-01-24T02:37:39.270Z,36.05
2018-01-24T02:40:06.879Z,36.06
2018-01-24T02:42:34.409Z,36.03
2018-01-24T02:45:02.055Z,35.99
2018-01-24T02:47:29.659Z,35.99
2018-01-24T02:49:57.216Z,35.93
2018-01-24T02:52:24.844Z,35.98
2018-01-24T02:54:52.439Z,35.87
2018-01-24T02:57:20.042Z,35.88
2018-01-24T02:59:47.671Z,35.80
2018-01-24T03:02:15.282Z,35.79
2018-01-24T03:04:42.882Z,35.85
2018-01-24T03:07:10.517Z,35.78
2018-01-24T03:09:38.071Z,35.77
2018-01-24T03:12:05.636Z,35.75
2018-01-24T03:14:33.277Z,35.72
2018-01-24T03:17:00.874Z,35.74
2018-01-24T03:19:28.471Z,35.65
2018-01-24T03:21:56.041Z,35.61
2018-01-24T03:24:23.632Z,35.59
2018-01-24T03:26:51.231Z,35.55
2018-01-24T03:29:18.797Z,35.55
2018-01-24T03:31:46.398Z,35.58
2018-01-24T03:34:13.956Z,35.57
2018-01-24T03:36:41.519Z,35.52
2018-01-24T03:39:09.077Z,35.46
2018-01-24T03:41:36.677Z,35.51
2018-01-24T03:44:04.246Z,35.47
2018-01-24T03:46:31.803Z,35.61
2018-01-24T03:48:59.359Z,36.14
2018-01-24T03:51:26.961Z,36.19
2018-01-24T03:53:54.584Z,36.33
2018-01-24T03:56:22.127Z,36.35
2018-01-24T03:58:49.692Z,36.25
2018-01-24T04:01:17.536Z,36.23
2018-01-24T04:03:45.097Z,36.53
2018-01-24T04:06:12.724Z,36.80
2018-01-24T04:08:40.248Z,36.89
2018-01-24T04:11:07.811Z,37.35
2018-01-24T04:13:35.437Z,37.72
2018-01-24T04:16:03.031Z,37.75
2018-01-24T04:18:30.615Z,37.98
2018-01-24T04:20:58.174Z,38.09
2018-01-24T04:23:25.756Z,38.17
2018-01-24T04:25:53.348Z,38.20
2018-01-24T04:28:20.981Z,38.15
2018-01-24T04:30:48.507Z,38.10
2018-01-24T04:33:16.114Z,38.12
2018-01-24T04:35:43.711Z,38.17
2018-01-24T04:38:11.239Z,38.16
2018-01-24T04:40:38.815Z,38.28
2018-01-24T04:43:06.472Z,38.61
2018-01-24T04:45:34.104Z,38.55
2018-01-24T04:48:01.627Z,38.55
2018-01-24T04:50:29.257Z,38.60
2018-01-24T04:52:56.783Z,38.67
2018-01-24T04:55:24.376Z,38.62
2018-01-24T04:57:52.024Z,38.56
2018-01-24T05:00:19.571Z,38.51
2018-01-24T05:02:47.213Z,38.50
2018-01-24T05:05:14.817Z,38.48
2018-01-24T05:07:42.424Z,38.46
2018-01-24T05:10:10.036Z,38.44
2018-01-24T05:12:37.631Z,38.45
2018-01-24T05:15:05.182Z,38.51
2018-01-24T05:17:32.800Z,38.62
2018-01-24T05:20:00.393Z,38.69
2018-01-24T05:22:28.018Z,38.74
2018-01-24T05:24:55.604Z,38.78
2018-01-24T05:27:23.237Z,38.82
2018-01-24T05:29:50.835Z,38.69
2018-01-24T05:32:18.414Z,38.57
2018-01-24T05:34:45.970Z,38.44
2018-01-24T05:37:13.515Z,38.31
2018-01-24T05:39:41.066Z,38.21
2018-01-24T05:42:08.661Z,38.15
2018-01-24T05:44:36.260Z,38.05
2018-01-24T05:47:03.884Z,38.08
2018-01-24T05:49:31.471Z,38.15
2018-01-24T05:51:59.040Z,37.99
2018-01-24T05:54:26.635Z,37.94
2018-01-24T05:56:54.246Z,37.85
2018-01-24T05:59:21.771Z,37.77
2018-01-24T06:01:49.327Z,37.66
2018-01-24T06:04:16.908Z,37.67
2018-01-24T06:06:44.463Z,37.60
2018-01-24T06:09:12.026Z,37.45
2018-01-24T06:11:39.623Z,37.39
2018-01-24T06:14:07.220Z,37.33
2018-01-24T06:16:34.849Z,37.30
2018-01-24T06:19:02.435Z,37.25
2018-01-24T06:21:30.028Z,37.21
2018-01-24T06:23:57.652Z,37.16
2018-01-24T06:26:25.216Z,37.14
2018-01-24T06:28:52.796Z,37.14
2018-01-24T06:31:20.422Z,37.09
2018-01-24T06:33:47.948Z,37.04
2018-01-24T06:36:15.495Z,37.02
2018-01-24T06:38:43.133Z,36.99
2018-01-24T06:41:10.709Z,36.97
2018-01-24T06:43:38.228Z,36.96
2018-01-24T06:46:05.860Z,36.91
2018-01-24T06:48:33.455Z,36.79
2018-01-24T06:51:01.063Z,36.74
2018-01-24T06:53:28.780Z,36.72
2018-01-24T06:55:56.335Z,36.69
2018-01-24T06:58:23.860Z,36.66
2018-01-24T07:00:51.429Z,36.58
2018-01-24T07:03:19.067Z,36.59
2018-01-24T07:05:46.592Z,36.50
2018-01-24T07:08:14.216Z,36.42
2018-01-24T07:10:41.734Z,36.43
2018-01-24T07:13:21.156Z,36.36
2018-01-24T07:15:48.674Z,36.37
2018-01-24T07:18:16.256Z,36.34
2018-01-24T07:20:43.880Z,36.25
2018-01-24T07:23:11.459Z,36.21
2018-01-24T07:25:39.047Z,36.18
2018-01-24T07:28:06.610Z,36.17
2018-01-24T07:30:34.225Z,36.11
2018-01-24T07:33:01.783Z,36.03
2018-01-24T07:35:29.430Z,35.96
2018-01-24T07:37:56.980Z,35.93
2018-01-24T07:40:24.560Z,35.81
2018-01-24T07:42:52.447Z,35.79
2018-01-24T07:45:20.046Z,35.68
2018-01-24T07:47:47.629Z,35.59
2018-01-24T07:50:15.223Z,35.52
2018-01-24T07:52:42.746Z,35.44
2018-01-24T07:55:10.301Z,35.41
2018-01-24T07:57:37.883Z,35.37
2018-01-24T08:00:05.438Z,35.34
2018-01-24T08:02:33.024Z,35.30
2018-01-24T08:05:00.695Z,35.10
2018-01-24T08:07:28.218Z,34.98
2018-01-24T08:09:55.830Z,34.95
2018-01-24T08:12:23.456Z,34.97
2018-01-24T08:14:51.051Z,34.94
2018-01-24T08:17:18.579Z,34.92
2018-01-24T08:19:46.196Z,34.89
2018-01-24T08:22:13.800Z,34.88
2018-01-24T08:24:41.406Z,34.79
2018-01-24T08:27:09.032Z,34.65
2018-01-24T08:29:36.625Z,34.56
2018-01-24T08:32:04.180Z,34.59
2018-01-24T08:34:31.777Z,34.56
2018-01-24T08:36:59.364Z,34.50
2018-01-24T08:39:26.959Z,34.53
2018-01-24T08:41:54.475Z,34.55
2018-01-24T08:44:21.995Z,34.61
2018-01-24T08:46:49.602Z,34.70
2018-01-24T08:49:17.159Z,34.77
2018-01-24T08:51:44.766Z,34.76
2018-01-24T08:54:12.387Z,34.75
2018-01-24T08:56:39.907Z,34.68
2018-01-24T08:59:07.502Z,34.63
2018-01-24T09:01:35.138Z,34.63
2018-01-24T09:04:02.656Z,34.71
2018-01-24T09:06:30.319Z,34.70
2018-01-24T09:08:57.950Z,34.75
2018-01-24T09:13:58.269Z,34.71
2018-01-24T09:16:25.829Z,34.59
2018-01-24T09:21:26.080Z,34.50
2018-01-24T09:23:58.732Z,34.43
2018-01-24T09:26:26.365Z,34.34
2018-01-24T09:28:53.920Z,34.36
2018-01-24T09:31:21.455Z,34.39
2018-01-24T09:33:48.982Z,34.38
2018-01-24T09:38:49.627Z,34.41
2018-01-24T09:41:17.228Z,34.45
2018-01-24T09:43:44.784Z,34.49
2018-01-24T09:46:12.341Z,34.45
2018-01-24T09:48:39.891Z,34.50
2018-01-24T09:51:07.486Z,34.42
2018-01-24T09:53:35.438Z,34.39
2018-01-24T09:56:02.991Z,34.38
2018-01-24T09:58:30.514Z,34.32
2018-01-24T10:00:58.067Z,34.31
2018-01-24T10:03:25.588Z,34.27
2018-01-24T10:05:53.186Z,34.27
2018-01-24T10:08:20.824Z,34.31
2018-01-24T10:10:48.375Z,34.38
2018-01-24T10:13:16.003Z,34.45
2018-01-24T10:15:43.873Z,34.39
2018-01-24T10:18:11.391Z,34.37
2018-01-24T10:20:38.911Z,34.35
2018-01-24T10:23:06.496Z,34.21
2018-01-24T10:25:34.094Z,34.14
2018-01-24T10:28:01.623Z,34.08
2018-01-24T10:30:29.630Z,34.06
2018-01-24T10:32:57.235Z,33.98
2018-01-24T10:35:24.838Z,33.95
2018-01-24T10:37:52.390Z,33.86
2018-01-24T10:40:19.947Z,33.86
2018-01-24T10:42:47.516Z,33.73
2018-01-24T10:45:15.510Z,28.24
2018-01-24T10:47:43.108Z,23.89
2018-01-24T10:50:10.634Z,27.84
2018-01-24T10:52:38.256Z,29.65
2018-01-24T10:55:05.848Z,31.29
2018-01-24T10:57:33.409Z,31.94
2018-01-24T11:00:01.223Z,32.26
2018-01-24T11:02:28.794Z,32.47
2018-01-24T11:04:56.402Z,32.72
2018-01-24T11:07:24.025Z,32.93
2018-01-24T11:09:51.612Z,33.20
2018-01-24T11:12:19.198Z,33.61
2018-01-24T11:14:46.791Z,33.96
2018-01-24T11:17:14.320Z,34.19
2018-01-24T11:19:41.881Z,34.77
2018-01-24T11:22:09.519Z,35.25
2018-01-24T11:24:37.040Z,35.47
2018-01-24T11:27:04.641Z,35.49
2018-01-24T11:29:32.265Z,35.42
2018-01-24T11:31:59.872Z,35.50
2018-01-24T11:34:27.456Z,35.45
2018-01-24T11:36:55.009Z,35.22
2018-01-24T11:39:22.606Z,35.26
2018-01-24T11:41:50.210Z,35.15
2018-01-24T11:44:19.575Z,35.13
2018-01-24T11:46:47.254Z,35.07
2018-01-24T11:49:14.782Z,35.07
2018-01-24T11:51:42.502Z,35.10
2018-01-24T11:54:10.023Z,35.08
2018-01-24T11:59:13.803Z,35.05
2018-01-24T12:01:41.325Z,34.94
2018-01-24T12:04:08.884Z,34.91
2018-01-24T12:06:36.477Z,34.87
2018-01-24T12:09:04.063Z,34.86
2018-01-24T12:11:31.677Z,34.79
2018-01-24T12:13:59.427Z,34.67
2018-01-24T12:16:26.984Z,34.72
2018-01-24T12:18:54.504Z,34.67
2018-01-24T12:21:22.301Z,34.68
2018-01-24T12:23:49.851Z,34.68
2018-01-24T12:26:17.454Z,34.75
2018-01-24T12:28:45.087Z,34.75
2018-01-24T12:31:12.615Z,34.80
2018-01-24T12:33:40.172Z,34.79
2018-01-24T12:36:07.761Z,34.74
2018-01-24T12:38:35.362Z,34.73
2018-01-24T12:41:02.891Z,34.76
2018-01-24T12:43:30.483Z,34.78
2018-01-24T12:45:58.019Z,34.84
2018-01-24T12:48:25.571Z,34.85
2018-01-24T12:50:53.159Z,34.78
2018-01-24T12:53:20.761Z,34.78
2018-01-24T12:55:48.361Z,34.80
2018-01-24T12:58:16.182Z,34.76
2018-01-24T13:00:43.701Z,34.85
2018-01-24T13:03:11.275Z,34.87
2018-01-24T13:05:38.907Z,34.85
2018-01-24T13:08:06.438Z,34.87
2018-01-24T13:10:33.959Z,34.86
2018-01-24T13:13:01.766Z,34.86
2018-01-24T13:15:29.291Z,34.88
2018-01-24T13:17:56.811Z,34.86
2018-01-24T13:20:24.368Z,34.82
2018-01-24T13:22:51.893Z,34.83
2018-01-24T13:25:19.497Z,34.84
2018-01-24T13:27:47.046Z,34.86
2018-01-24T13:30:14.584Z,34.92
2018-01-24T13:32:42.181Z,34.96
2018-01-24T13:35:09.920Z,34.96
2018-01-24T13:37:37.440Z,34.97
2018-01-24T13:40:05.081Z,35.09
2018-01-24T13:42:32.638Z,35.07
2018-01-24T13:45:00.159Z,35.03
2018-01-24T13:47:27.758Z,35.00
2018-01-24T13:49:55.558Z,35.01
2018-01-24T13:52:23.079Z,35.00
2018-01-24T13:54:50.606Z,34.87
2018-01-24T13:57:18.462Z,34.85
2018-01-24T13:59:46.018Z,34.78
2018-01-24T14:02:13.542Z,34.73
2018-01-24T14:04:41.064Z,34.73
2018-01-24T14:07:08.587Z,34.77
2018-01-24T14:09:36.427Z,34.75
2018-01-24T14:12:03.931Z,34.77
2018-01-24T14:14:31.455Z,34.74
2018-01-24T14:16:59.219Z,34.83
2018-01-24T14:19:26.760Z,34.83
2018-01-24T14:21:54.283Z,34.83
2018-01-24T14:24:21.838Z,34.64
2018-01-24T14:26:49.387Z,34.62
2018-01-24T14:29:16.913Z,34.59
2018-01-24T14:31:44.509Z,34.61
2018-01-24T14:34:12.035Z,34.60
2018-01-24T14:36:39.558Z,34.62
2018-01-24T14:39:07.143Z,34.62
2018-01-24T14:41:34.703Z,34.63
2018-01-24T14:44:02.222Z,34.67
2018-01-24T14:46:29.853Z,34.76
2018-01-24T14:48:57.416Z,34.78
2018-01-24T14:51:25.015Z,34.77
2018-01-24T14:53:52.650Z,34.76
2018-01-24T14:56:20.203Z,34.79
2018-01-24T14:58:47.724Z,34.80
2018-01-24T15:01:15.419Z,34.87
2018-01-24T15:03:42.991Z,34.87
2018-01-24T15:06:10.520Z,34.90
2018-01-24T15:08:38.135Z,34.90
2018-01-24T15:11:05.662Z,34.90
2018-01-24T15:13:33.325Z,34.84
2018-01-24T15:16:00.965Z,34.87
2018-01-24T15:18:28.527Z,34.85
2018-01-24T15:20:56.105Z,34.87
2018-01-24T15:23:23.690Z,34.86
2018-01-24T15:25:51.251Z,34.85
2018-01-24T15:28:18.902Z,34.87
2018-01-24T15:30:46.779Z,34.86
2018-01-24T15:33:14.331Z,34.79
2018-01-24T15:35:42.035Z,34.83
2018-01-24T15:38:09.795Z,34.84
2018-01-24T15:40:37.393Z,34.79
2018-01-24T15:43:04.950Z,34.76
2018-01-24T15:45:32.590Z,34.77
2018-01-24T15:48:00.114Z,34.68
2018-01-24T15:50:27.709Z,34.75
2018-01-24T15:52:55.357Z,35.01
2018-01-24T15:55:22.945Z,35.18
2018-01-24T15:57:50.542Z,35.24
2018-01-24T16:00:18.413Z,35.26
2018-01-24T16:02:45.942Z,35.76
2018-01-24T16:05:13.535Z,35.99
2018-01-24T16:07:41.119Z,35.99
2018-01-24T16:10:08.683Z,36.07
2018-01-24T16:12:36.206Z,35.99
2018-01-24T16:15:03.962Z,35.92
2018-01-24T16:17:31.490Z,35.91
2018-01-24T16:19:59.160Z,35.87
2018-01-24T16:22:26.787Z,35.79
2018-01-24T16:24:54.381Z,35.80
2018-01-24T16:27:21.981Z,35.90
2018-01-24T16:29:49.581Z,35.99
2018-01-24T16:32:17.144Z,36.12
2018-01-24T16:34:44.668Z,36.07
2018-01-24T16:37:12.312Z,36.05
2018-01-24T16:39:39.917Z,35.96
2018-01-24T16:42:07.446Z,35.94
2018-01-24T16:44:35.267Z,36.13
2018-01-24T16:47:02.809Z,36.27
2018-01-24T16:49:30.443Z,36.29
2018-01-24T16:51:58.195Z,36.67
2018-01-24T16:54:25.796Z,36.65
2018-01-24T16:56:53.375Z,36.67
2018-01-24T16:59:21.030Z,36.66
2018-01-24T17:01:48.647Z,37.50
2018-01-24T17:04:16.266Z,38.08
2018-01-24T17:06:43.887Z,38.58
2018-01-24T17:09:11.460Z,39.36
2018-01-24T17:11:39.015Z,39.97
2018-01-24T17:14:06.670Z,40.39
2018-01-24T17:16:34.291Z,40.71
2018-01-24T17:19:01.947Z,41.27
2018-01-24T17:21:29.524Z,41.77
2018-01-24T17:23:57.118Z,42.06
2018-01-24T17:26:24.678Z,42.37
2018-01-24T17:28:52.251Z,42.70
2018-01-24T17:31:19.860Z,43.22
2018-01-24T17:33:47.420Z,43.13
2018-01-24T17:36:15.001Z,43.47
2018-01-24T17:38:42.601Z,43.67
2018-01-24T17:41:10.156Z,43.77
2018-01-24T17:43:37.789Z,43.61
2018-01-24T17:46:05.327Z,43.78
2018-01-24T17:48:32.855Z,43.72
2018-01-24T17:51:00.460Z,43.92
2018-01-24T17:53:28.017Z,43.72
2018-01-24T17:55:55.546Z,40.30
2018-01-24T17:58:23.118Z,26.65
2018-01-24T18:00:50.662Z,32.39
2018-01-24T18:03:18.264Z,39.57
2018-01-24T18:05:45.894Z,40.29
2018-01-24T18:08:13.502Z,40.43
2018-01-24T18:10:41.048Z,41.19
2018-01-24T18:13:08.683Z,41.88
2018-01-24T18:15:36.303Z,42.78
2018-01-24T18:18:03.911Z,42.78
2018-01-24T18:20:31.511Z,42.37
2018-01-24T18:22:59.045Z,42.36
2018-01-24T18:25:26.665Z,42.39
2018-01-24T18:27:54.375Z,42.04
2018-01-24T18:30:21.931Z,41.81
2018-01-24T18:32:49.498Z,41.92
2018-01-24T18:35:17.071Z,41.83
2018-01-24T18:37:44.602Z,41.79
2018-01-24T18:40:12.129Z,41.74
2018-01-24T18:42:41.517Z,41.70
2018-01-24T18:45:09.136Z,41.77
2018-01-24T18:47:36.760Z,41.86
2018-01-24T18:50:04.340Z,41.66
2018-01-24T18:52:31.967Z,41.57
2018-01-24T18:54:59.615Z,41.58
2018-01-24T18:57:27.252Z,41.58
2018-01-24T18:59:54.779Z,41.68
2018-01-24T19:02:22.416Z,41.73
2018-01-24T19:04:49.998Z,41.92
2018-01-24T19:09:49.248Z,42.13
2018-01-24T19:12:16.840Z,41.94
2018-01-24T19:14:44.457Z,41.86
2018-01-24T19:17:12.130Z,41.79
2018-01-24T19:19:39.744Z,41.73
2018-01-24T19:22:07.267Z,41.66
2018-01-24T19:24:34.869Z,41.68
2018-01-24T19:27:02.408Z,41.64
2018-01-24T19:29:29.991Z,41.49
2018-01-24T19:31:57.570Z,41.37
2018-01-24T19:34:25.189Z,41.13
2018-01-24T19:36:52.718Z,40.93
2018-01-24T19:39:20.348Z,40.78
2018-01-24T19:41:47.949Z,40.67
2018-01-24T19:44:15.503Z,40.45
2018-01-24T19:46:43.131Z,40.30
2018-01-24T19:49:10.701Z,40.16
2018-01-24T19:51:38.306Z,39.94
2018-01-24T19:54:05.941Z,39.78
2018-01-24T19:56:33.545Z,39.62
2018-01-24T19:59:01.075Z,39.47
2018-01-24T20:01:28.724Z,39.32
2018-01-24T20:03:56.254Z,39.19
2018-01-24T20:06:23.838Z,39.21
2018-01-24T20:08:51.471Z,39.13
2018-01-24T20:11:19.035Z,38.97
2018-01-24T20:13:46.586Z,38.80
2018-01-24T20:16:14.237Z,38.68
2018-01-24T20:18:41.770Z,38.56
2018-01-24T20:21:09.466Z,38.47
2018-01-24T20:23:37.123Z,38.63
2018-01-24T20:26:04.714Z,38.58
2018-01-24T20:28:32.282Z,38.31
2018-01-24T20:30:59.912Z,38.16
2018-01-24T20:33:27.530Z,38.06
2018-01-24T20:35:55.131Z,37.93
2018-01-24T20:38:22.775Z,38.07
2018-01-24T20:40:50.348Z,38.01
2018-01-24T20:43:17.940Z,37.82
2018-01-24T20:45:45.578Z,37.67
2018-01-24T20:48:13.107Z,37.47
2018-01-24T20:50:40.671Z,37.39
2018-01-24T20:53:08.281Z,37.31
2018-01-24T20:55:35.898Z,37.19
2018-01-24T20:58:03.504Z,37.13
2018-01-24T21:00:31.074Z,37.03
2018-01-24T21:02:58.668Z,36.94
2018-01-24T21:05:26.235Z,36.91
2018-01-24T21:07:54.005Z,36.80
2018-01-24T21:10:21.538Z,36.70
2018-01-24T21:12:49.071Z,36.60
2018-01-24T21:15:16.725Z,36.53
2018-01-24T21:17:44.250Z,36.53
2018-01-24T21:20:11.816Z,36.39
2018-01-24T21:22:39.434Z,36.41
2018-01-24T21:25:07.012Z,36.28
2018-01-24T21:27:34.614Z,36.23
2018-01-24T21:30:13.971Z,36.14
2018-01-24T21:32:53.224Z,36.09
2018-01-24T21:35:32.803Z,36.07
2018-01-24T21:38:00.376Z,36.00
2018-01-24T21:40:27.967Z,35.89
2018-01-24T21:42:55.604Z,35.85
2018-01-24T21:45:23.192Z,35.82
2018-01-24T21:47:50.714Z,35.70
2018-01-24T21:50:18.278Z,35.63
2018-01-24T21:52:45.879Z,35.55
2018-01-24T21:55:13.477Z,35.49
2018-01-24T21:57:41.071Z,35.42
2018-01-24T22:00:08.708Z,35.38
2018-01-24T22:02:36.331Z,35.42
2018-01-24T22:05:04.005Z,35.32
2018-01-24T22:07:31.649Z,35.33
2018-01-24T22:09:59.176Z,35.23
2018-01-24T22:12:26.808Z,35.19
2018-01-24T22:14:54.407Z,35.14
2018-01-24T22:17:22.004Z,35.14
2018-01-24T22:19:49.567Z,35.11
2018-01-24T22:22:17.156Z,35.04
2018-01-24T22:24:44.742Z,35.04
2018-01-24T22:27:12.339Z,34.96
2018-01-24T22:29:39.930Z,34.93
2018-01-24T22:32:07.539Z,34.88
2018-01-24T22:34:35.129Z,34.81
2018-01-24T22:37:02.753Z,34.74
2018-01-24T22:39:30.343Z,34.68
2018-01-24T22:41:57.969Z,34.63
2018-01-24T22:44:25.511Z,34.55
2018-01-24T22:46:53.144Z,34.62
2018-01-24T22:49:20.761Z,34.54
2018-01-24T22:51:48.364Z,34.56
2018-01-24T22:54:16.013Z,34.47
2018-01-24T22:56:43.580Z,34.37
2018-01-24T22:59:11.172Z,34.33
2018-01-24T23:01:38.801Z,34.31
2018-01-24T23:04:06.323Z,34.28
2018-01-24T23:06:33.917Z,34.26
2018-01-24T23:09:01.519Z,34.25
2018-01-24T23:11:29.043Z,34.19
2018-01-24T23:13:56.581Z,34.14
2018-01-24T23:16:24.175Z,34.01
2018-01-24T23:18:51.747Z,34.00
2018-01-24T23:21:19.306Z,33.95
2018-01-24T23:23:46.912Z,33.93
2018-01-24T23:26:14.517Z,33.89
2018-01-24T23:28:42.059Z,33.85
2018-01-24T23:31:09.696Z,33.80
2018-01-24T23:33:37.301Z,33.84
2018-01-24T23:36:04.859Z,33.87
2018-01-24T23:41:06.367Z,33.79
2018-01-24T23:43:33.968Z,33.75
2018-01-24T23:46:01.602Z,33.68
2018-01-24T23:48:29.212Z,33.71
2018-01-24T23:50:56.787Z,33.64
2018-01-24T23:53:24.394Z,33.65
2018-01-24T23:55:52.006Z,33.61
2018-01-24T23:58:19.582Z,33.59
